Zibo, China
Current Conditions -  °F | °C
As of 8:00 PM on Thursday 23 Oct 2014 (Local Time) from ZSJN Reporting Station
Haze Haze  
Wind Chill: 63°   Ceiling: Unl
Heat Index: 63°   Visibility: 2.5mi
Dew Point: 54°   Wind: 2mph
Humidity: 72%   Direction: 200°SSW
Pressure: 29.91"   Gusts: NA
Location:  36.8°N, 118.1°E
Report Text: ZSJN 231200Z 20001MPS 4000 HZ NSC 17/12 Q1013 NOSIG
Loading
Personal Weather Stations






























Interactive Weather Map
Tropical Storm Tracking
New forecast layout! Learn more

10-Day Weather Forecast

Advertisements
Track Severe Weather on mobile